createdAt,value
2019-02-20T00:00:58.627Z,7.76
2019-02-20T00:03:28.044Z,7.73
2019-02-20T00:05:57.232Z,7.80
2019-02-20T00:08:26.405Z,7.85
2019-02-20T00:10:56.552Z,7.79
2019-02-20T00:13:25.725Z,7.84
2019-02-20T00:15:54.901Z,7.69
2019-02-20T00:18:24.098Z,7.70
2019-02-20T00:20:53.291Z,7.77
2019-02-20T00:23:22.465Z,7.78
2019-02-20T00:25:51.665Z,7.74
2019-02-20T00:28:20.851Z,7.68
2019-02-20T00:30:50.028Z,7.80
2019-02-20T00:33:19.226Z,7.78
2019-02-20T00:35:48.316Z,7.81
2019-02-20T00:38:17.493Z,7.84
2019-02-20T00:40:46.700Z,7.90
2019-02-20T00:43:15.866Z,7.85
2019-02-20T00:45:46.699Z,7.92
2019-02-20T00:48:23.324Z,7.84
2019-02-20T00:51:00.043Z,7.90
2019-02-20T00:53:30.899Z,7.86
2019-02-20T00:56:00.078Z,7.78
2019-02-20T00:58:29.247Z,7.77
2019-02-20T01:00:58.447Z,7.67
2019-02-20T01:03:27.625Z,7.69
2019-02-20T01:05:56.811Z,7.64
2019-02-20T01:08:26.039Z,7.70
2019-02-20T01:10:55.676Z,7.61
2019-02-20T01:13:24.844Z,7.58
2019-02-20T01:15:54.048Z,7.64
2019-02-20T01:18:23.242Z,7.64
2019-02-20T01:23:21.248Z,7.79
2019-02-20T01:25:50.430Z,7.73
2019-02-20T01:28:19.628Z,7.70
2019-02-20T01:30:48.818Z,7.56
2019-02-20T01:33:17.993Z,7.57
2019-02-20T01:35:47.156Z,7.61
2019-02-20T01:38:16.495Z,7.62
2019-02-20T01:40:45.674Z,7.63
2019-02-20T01:43:14.934Z,7.62
2019-02-20T01:45:44.126Z,7.55
2019-02-20T01:48:13.296Z,7.56
2019-02-20T01:50:42.480Z,7.62
2019-02-20T01:53:11.683Z,7.53
2019-02-20T01:55:40.892Z,7.55
2019-02-20T01:58:10.074Z,7.58
2019-02-20T02:00:39.783Z,7.63
2019-02-20T02:03:08.958Z,7.60
2019-02-20T02:05:38.153Z,7.60
2019-02-20T02:08:07.359Z,7.64
2019-02-20T02:10:36.539Z,7.58
2019-02-20T02:13:05.732Z,7.68
2019-02-20T02:15:34.954Z,7.58
2019-02-20T02:18:04.492Z,7.61
2019-02-20T02:20:33.684Z,7.70
2019-02-20T02:23:02.882Z,7.63
2019-02-20T02:25:32.054Z,7.65
2019-02-20T02:28:01.253Z,7.51
2019-02-20T02:30:30.563Z,7.56
2019-02-20T02:32:59.760Z,7.56
2019-02-20T02:35:28.945Z,7.56
2019-02-20T02:37:58.158Z,7.52
2019-02-20T02:40:27.350Z,7.51
2019-02-20T02:42:56.568Z,7.43
2019-02-20T02:45:25.794Z,7.39
2019-02-20T02:47:54.967Z,7.44
2019-02-20T02:50:24.140Z,7.46
2019-02-20T02:52:53.356Z,7.42
2019-02-20T02:55:22.533Z,7.43
2019-02-20T02:57:51.703Z,7.42
2019-02-20T03:00:20.913Z,7.26
2019-02-20T03:02:50.098Z,7.32
2019-02-20T03:05:19.245Z,7.36
2019-02-20T03:07:48.436Z,7.23
2019-02-20T03:10:17.662Z,7.26
2019-02-20T03:12:46.804Z,7.18
2019-02-20T03:15:16.002Z,7.12
2019-02-20T03:17:45.182Z,7.15
2019-02-20T03:20:14.361Z,7.19
2019-02-20T03:22:43.605Z,7.25
2019-02-20T03:25:12.844Z,7.18
2019-02-20T03:27:42.045Z,7.11
2019-02-20T03:30:11.473Z,7.31
2019-02-20T03:32:40.681Z,7.19
2019-02-20T03:35:09.861Z,7.29
2019-02-20T03:37:39.072Z,7.17
2019-02-20T03:40:08.887Z,7.19
2019-02-20T03:42:38.079Z,7.08
2019-02-20T03:45:08.048Z,7.11
2019-02-20T03:47:37.254Z,7.19
2019-02-20T03:50:07.186Z,7.22
2019-02-20T03:52:36.407Z,7.03
2019-02-20T03:55:06.837Z,7.07
2019-02-20T03:57:36.200Z,7.12
2019-02-20T04:00:08.317Z,6.99
2019-02-20T04:02:37.494Z,7.03
2019-02-20T04:05:07.001Z,6.97
2019-02-20T04:07:36.152Z,6.96
2019-02-20T04:10:06.201Z,6.79
2019-02-20T04:12:35.384Z,6.88
2019-02-20T04:15:06.224Z,6.88
2019-02-20T04:17:36.253Z,6.96
2019-02-20T04:20:07.395Z,7.04
2019-02-20T04:22:36.640Z,6.85
2019-02-20T04:25:06.866Z,7.04
2019-02-20T04:27:36.037Z,6.98
2019-02-20T04:30:07.882Z,7.07
2019-02-20T04:32:37.062Z,6.92
2019-02-20T04:35:06.473Z,6.95
2019-02-20T04:37:35.678Z,6.99
2019-02-20T04:40:06.193Z,6.87
2019-02-20T04:42:35.382Z,7.06
2019-02-20T04:45:05.933Z,6.80
2019-02-20T04:47:35.122Z,6.70
2019-02-20T04:50:05.509Z,6.77
2019-02-20T04:52:34.678Z,6.80
2019-02-20T04:55:04.731Z,6.86
2019-02-20T04:57:33.918Z,6.88
2019-02-20T05:00:03.136Z,6.82
2019-02-20T05:02:32.225Z,6.85
2019-02-20T05:05:01.419Z,6.88
2019-02-20T05:07:30.602Z,6.83
2019-02-20T05:09:59.846Z,7.13
2019-02-20T05:12:29.078Z,7.21
2019-02-20T05:14:58.276Z,6.87
2019-02-20T05:17:27.450Z,6.98
2019-02-20T05:19:56.628Z,6.95
2019-02-20T05:22:25.847Z,6.95
2019-02-20T05:24:55.054Z,6.88
2019-02-20T05:27:24.267Z,6.92
2019-02-20T05:29:53.482Z,6.75
2019-02-20T05:32:22.651Z,6.79
2019-02-20T05:34:51.925Z,6.82
2019-02-20T05:37:21.141Z,6.81
2019-02-20T05:39:50.329Z,6.94
2019-02-20T05:42:19.519Z,6.99
2019-02-20T05:44:48.654Z,7.03
2019-02-20T05:47:17.852Z,6.92
2019-02-20T05:49:47.057Z,6.95
2019-02-20T05:52:16.245Z,6.88
2019-02-20T05:54:45.484Z,7.01
2019-02-20T05:57:14.616Z,6.94
2019-02-20T05:59:43.797Z,7.02
2019-02-20T06:02:13.009Z,6.99
2019-02-20T06:04:42.187Z,7.01
2019-02-20T06:07:11.360Z,6.95
2019-02-20T06:09:40.562Z,6.97
2019-02-20T06:12:09.829Z,7.03
2019-02-20T06:14:39.003Z,6.97
2019-02-20T06:17:08.219Z,7.07
2019-02-20T06:19:37.405Z,7.04
2019-02-20T06:22:06.571Z,7.09
2019-02-20T06:24:43.832Z,7.13
2019-02-20T06:27:07.923Z,7.12
2019-02-20T06:29:37.210Z,7.04
2019-02-20T06:32:06.391Z,7.01
2019-02-20T06:34:35.582Z,6.90
2019-02-20T06:37:04.758Z,6.90
2019-02-20T06:39:33.933Z,6.94
2019-02-20T06:42:03.125Z,6.95
2019-02-20T06:44:32.306Z,7.08
2019-02-20T06:47:01.482Z,7.21
2019-02-20T06:49:30.681Z,7.12
2019-02-20T06:51:59.864Z,6.98
2019-02-20T06:54:29.029Z,7.01
2019-02-20T06:56:58.244Z,6.89
2019-02-20T06:59:27.428Z,6.88
2019-02-20T07:01:56.600Z,6.97
2019-02-20T07:04:25.792Z,7.04
2019-02-20T07:06:58.016Z,6.95
2019-02-20T07:09:42.411Z,6.89
2019-02-20T07:12:25.867Z,7.02
2019-02-20T07:15:16.060Z,6.89
2019-02-20T07:17:54.130Z,7.03
2019-02-20T07:20:50.274Z,6.96
2019-02-20T07:23:31.284Z,6.89
2019-02-20T07:26:12.431Z,6.89
2019-02-20T07:28:44.659Z,6.99
2019-02-20T07:31:13.829Z,6.97
2019-02-20T07:33:43.027Z,7.20
2019-02-20T07:36:12.248Z,7.23
2019-02-20T07:38:41.439Z,7.19
2019-02-20T07:41:10.538Z,7.10
2019-02-20T07:43:39.746Z,7.13
2019-02-20T07:46:08.927Z,7.11
2019-02-20T07:48:38.147Z,7.28
2019-02-20T07:51:07.347Z,7.21
2019-02-20T07:53:36.518Z,7.33
2019-02-20T07:56:05.690Z,7.43
2019-02-20T07:58:34.922Z,7.28
2019-02-20T08:01:04.110Z,7.40
2019-02-20T08:03:33.292Z,7.52
2019-02-20T08:06:02.487Z,7.66
2019-02-20T08:08:31.717Z,7.67
2019-02-20T08:11:00.875Z,7.71
2019-02-20T08:13:38.923Z,7.73
2019-02-20T08:16:01.037Z,7.61
2019-02-20T08:18:30.229Z,7.61
2019-02-20T08:20:59.490Z,7.62
2019-02-20T08:23:28.672Z,7.63
2019-02-20T08:25:59.649Z,7.73
2019-02-20T08:28:28.699Z,7.69
2019-02-20T08:30:57.892Z,7.72
2019-02-20T08:33:27.067Z,7.71
2019-02-20T08:35:56.279Z,7.74
2019-02-20T08:38:25.460Z,7.76
2019-02-20T08:40:54.644Z,7.77
2019-02-20T08:43:23.884Z,7.83
2019-02-20T08:45:53.060Z,8.04
2019-02-20T08:48:22.251Z,8.12
2019-02-20T08:50:51.452Z,8.26
2019-02-20T08:53:20.633Z,8.28
2019-02-20T08:55:49.831Z,8.45
2019-02-20T08:58:20.675Z,8.43
2019-02-20T09:00:50.063Z,8.43
2019-02-20T09:03:19.243Z,8.19
2019-02-20T09:05:48.453Z,8.47
2019-02-20T09:08:17.771Z,9.14
2019-02-20T09:10:46.858Z,9.32
2019-02-20T09:13:16.056Z,8.68
2019-02-20T09:15:45.305Z,8.72
2019-02-20T09:18:14.505Z,9.22
2019-02-20T09:20:43.695Z,9.09
2019-02-20T09:23:12.874Z,8.78
2019-02-20T09:25:42.036Z,8.71
2019-02-20T09:28:11.169Z,8.56
2019-02-20T09:30:40.424Z,8.47
2019-02-20T09:33:09.623Z,8.46
2019-02-20T09:35:38.756Z,8.72
2019-02-20T09:38:10.394Z,8.75
2019-02-20T09:40:39.205Z,8.83
2019-02-20T09:43:08.385Z,9.06
2019-02-20T09:45:41.974Z,8.86
2019-02-20T09:48:08.900Z,9.12
2019-02-20T09:50:38.094Z,8.81
2019-02-20T09:53:07.286Z,9.28
2019-02-20T09:55:36.514Z,9.57
2019-02-20T09:58:05.696Z,9.43
2019-02-20T10:00:34.915Z,9.43
2019-02-20T10:03:04.097Z,9.16
2019-02-20T10:05:33.286Z,9.19
2019-02-20T10:08:04.436Z,9.05
2019-02-20T10:10:33.480Z,8.97
2019-02-20T10:13:02.670Z,9.07
2019-02-20T10:15:31.890Z,9.24
2019-02-20T10:18:01.065Z,9.22
2019-02-20T10:20:30.240Z,8.92
2019-02-20T10:22:59.436Z,9.18
2019-02-20T10:25:28.618Z,9.31
2019-02-20T10:27:57.812Z,9.42
2019-02-20T10:30:27.017Z,9.73
2019-02-20T10:32:56.194Z,9.87
2019-02-20T10:35:25.375Z,9.66
2019-02-20T10:37:54.570Z,9.78
2019-02-20T10:40:23.731Z,9.77
2019-02-20T10:42:52.901Z,9.83
2019-02-20T10:45:22.231Z,9.67
2019-02-20T10:47:51.399Z,9.69
2019-02-20T10:50:20.571Z,9.72
2019-02-20T10:52:49.783Z,9.80
2019-02-20T10:55:19.112Z,9.80
2019-02-20T10:57:48.317Z,10.02
2019-02-20T11:00:23.886Z,10.13
2019-02-20T11:02:50.371Z,9.88
2019-02-20T11:05:19.707Z,9.90
2019-02-20T11:07:48.922Z,10.02
2019-02-20T11:10:18.114Z,10.15
2019-02-20T11:12:47.297Z,10.12
2019-02-20T11:15:16.506Z,10.20
2019-02-20T11:17:45.677Z,10.16
2019-02-20T11:20:14.875Z,10.49
2019-02-20T11:22:44.071Z,10.43
2019-02-20T11:25:13.810Z,10.43
2019-02-20T11:27:42.983Z,10.22
2019-02-20T11:30:20.877Z,10.08
2019-02-20T11:32:50.064Z,10.02
2019-02-20T11:35:19.272Z,10.42
2019-02-20T11:37:48.471Z,10.23
2019-02-20T11:40:17.641Z,10.35
2019-02-20T11:42:46.825Z,10.18
2019-02-20T11:45:17.086Z,10.33
2019-02-20T11:47:46.268Z,10.33
2019-02-20T11:50:15.518Z,10.46
2019-02-20T11:52:44.724Z,10.60
2019-02-20T11:55:16.620Z,10.60
2019-02-20T11:57:45.849Z,10.57
2019-02-20T12:00:16.772Z,10.56
2019-02-20T12:02:45.982Z,10.53
2019-02-20T12:05:15.138Z,10.53
2019-02-20T12:07:44.330Z,10.51
2019-02-20T12:10:15.373Z,10.51
2019-02-20T12:12:44.629Z,10.54
2019-02-20T12:15:13.947Z,10.66
2019-02-20T12:17:43.150Z,10.77
2019-02-20T12:20:12.479Z,10.77
2019-02-20T12:22:41.743Z,10.71
2019-02-20T12:25:11.296Z,10.61
2019-02-20T12:27:40.499Z,10.72
2019-02-20T12:30:11.881Z,10.79
2019-02-20T12:32:41.251Z,10.84
2019-02-20T12:35:10.448Z,10.84
2019-02-20T12:37:39.624Z,10.88
2019-02-20T12:40:10.560Z,10.77
2019-02-20T12:42:39.798Z,10.77
2019-02-20T12:45:09.631Z,10.87
2019-02-20T12:47:38.817Z,10.96
2019-02-20T12:50:12.625Z,10.77
2019-02-20T12:52:41.828Z,10.77
2019-02-20T12:55:11.287Z,10.78
2019-02-20T12:57:40.468Z,10.89
2019-02-20T13:00:12.024Z,10.89
2019-02-20T13:02:41.259Z,10.99
2019-02-20T13:05:10.467Z,10.99
2019-02-20T13:07:39.648Z,11.10
2019-02-20T13:10:09.589Z,10.93
2019-02-20T13:12:38.775Z,10.89
2019-02-20T13:15:11.897Z,10.89
2019-02-20T13:17:41.374Z,11.03
2019-02-20T13:20:11.709Z,11.05
2019-02-20T13:22:40.914Z,11.12
2019-02-20T13:25:10.934Z,11.12
2019-02-20T13:27:45.795Z,11.05
2019-02-20T13:30:15.940Z,11.14
2019-02-20T13:32:45.123Z,11.14
2019-02-20T13:35:14.305Z,11.18
2019-02-20T13:37:43.525Z,11.25
2019-02-20T13:40:12.787Z,11.25
2019-02-20T13:42:41.964Z,11.25
2019-02-20T13:45:11.161Z,11.40
2019-02-20T13:47:40.555Z,11.31
2019-02-20T13:50:12.507Z,11.35
2019-02-20T13:52:42.243Z,11.32
2019-02-20T13:55:11.520Z,11.39
2019-02-20T13:57:40.771Z,11.38
2019-02-20T14:00:13.425Z,11.38
2019-02-20T14:02:43.012Z,11.33
2019-02-20T14:05:12.262Z,11.37
2019-02-20T14:07:41.772Z,11.35
2019-02-20T14:10:12.778Z,11.35
2019-02-20T14:12:41.987Z,11.35
2019-02-20T14:15:12.680Z,11.55
2019-02-20T14:17:41.856Z,11.46
2019-02-20T14:20:12.522Z,11.46
2019-02-20T14:22:42.032Z,11.48
2019-02-20T14:25:11.669Z,11.38
2019-02-20T14:27:40.852Z,11.30
2019-02-20T14:30:11.779Z,11.30
2019-02-20T14:32:40.981Z,11.18
2019-02-20T14:35:14.958Z,11.18
2019-02-20T14:37:44.147Z,11.21
2019-02-20T14:40:13.767Z,11.40
2019-02-20T14:42:42.985Z,11.40
2019-02-20T14:45:18.139Z,11.40
2019-02-20T14:47:47.312Z,11.53
2019-02-20T14:50:16.514Z,11.54
2019-02-20T14:52:45.697Z,11.54
2019-02-20T14:55:14.882Z,11.54
2019-02-20T14:57:44.099Z,11.54
2019-02-20T15:00:14.998Z,11.58
2019-02-20T15:02:44.186Z,11.54
2019-02-20T15:05:13.531Z,11.54
2019-02-20T15:07:42.716Z,11.43
2019-02-20T15:10:12.038Z,11.41
2019-02-20T15:12:41.251Z,11.36
2019-02-20T15:15:12.812Z,11.42
2019-02-20T15:17:41.986Z,11.40
2019-02-20T15:20:11.440Z,11.40
2019-02-20T15:22:40.615Z,11.39
2019-02-20T15:25:10.343Z,11.37
2019-02-20T15:27:39.541Z,11.36
2019-02-20T15:30:16.638Z,11.32
2019-02-20T15:32:45.834Z,11.32
2019-02-20T15:35:16.178Z,11.34
2019-02-20T15:37:45.350Z,11.34
2019-02-20T15:40:14.602Z,11.41
2019-02-20T15:42:43.782Z,11.41
2019-02-20T15:45:13.327Z,11.38
2019-02-20T15:47:42.500Z,11.38
2019-02-20T15:50:13.809Z,11.35
2019-02-20T15:52:43.026Z,11.35
2019-02-20T15:55:12.852Z,11.40
2019-02-20T15:57:42.176Z,11.44
2019-02-20T16:00:18.157Z,11.42
2019-02-20T16:02:47.334Z,11.42
2019-02-20T16:05:16.929Z,11.37
2019-02-20T16:07:46.834Z,11.45
2019-02-20T16:10:16.648Z,11.44
2019-02-20T16:12:45.822Z,11.48
2019-02-20T16:15:15.191Z,11.41
2019-02-20T16:17:44.947Z,11.37
2019-02-20T16:20:14.766Z,11.33
2019-02-20T16:22:43.955Z,11.31
2019-02-20T16:25:16.665Z,11.31
2019-02-20T16:27:47.447Z,11.32
2019-02-20T16:30:16.823Z,11.35
2019-02-20T16:32:46.011Z,11.35
2019-02-20T16:35:15.474Z,11.35
2019-02-20T16:37:44.642Z,11.32
2019-02-20T16:40:16.198Z,11.32
2019-02-20T16:42:45.515Z,11.30
2019-02-20T16:45:20.207Z,11.33
2019-02-20T16:47:49.431Z,11.31
2019-02-20T16:50:18.690Z,11.29
2019-02-20T16:52:47.876Z,11.27
2019-02-20T16:55:22.437Z,11.28
2019-02-20T16:57:56.280Z,11.26
2019-02-20T17:00:21.199Z,11.30
2019-02-20T17:02:50.943Z,11.26
2019-02-20T17:05:20.428Z,11.10
2019-02-20T17:07:49.642Z,11.10
2019-02-20T17:10:18.964Z,11.04
2019-02-20T17:12:48.168Z,10.97
2019-02-20T17:15:18.014Z,10.97
2019-02-20T17:17:47.203Z,10.92
2019-02-20T17:20:18.680Z,10.92
2019-02-20T17:22:47.886Z,10.91
2019-02-20T17:25:18.311Z,10.83
2019-02-20T17:27:47.500Z,10.78
2019-02-20T17:30:17.966Z,10.78
2019-02-20T17:32:47.511Z,10.66
2019-02-20T17:35:17.411Z,10.66
2019-02-20T17:37:46.727Z,10.79
2019-02-20T17:40:17.234Z,10.79
2019-02-20T17:42:46.454Z,10.79
2019-02-20T17:45:19.309Z,10.69
2019-02-20T17:47:48.595Z,10.66
2019-02-20T17:50:23.698Z,10.56
2019-02-20T17:52:52.899Z,10.56
2019-02-20T17:55:22.176Z,10.58
2019-02-20T17:57:51.551Z,10.55
2019-02-20T18:00:22.835Z,10.55
2019-02-20T18:02:52.030Z,10.48
2019-02-20T18:05:21.237Z,10.43
2019-02-20T18:07:51.968Z,10.32
2019-02-20T18:10:21.242Z,10.26
2019-02-20T18:12:50.436Z,10.26
2019-02-20T18:15:19.655Z,10.34
2019-02-20T18:17:48.748Z,10.34
2019-02-20T18:20:17.974Z,10.20
2019-02-20T18:22:47.167Z,10.20
2019-02-20T18:25:16.428Z,10.22
2019-02-20T18:27:45.615Z,10.22
2019-02-20T18:30:15.862Z,10.17
2019-02-20T18:32:45.075Z,10.19
2019-02-20T18:35:18.558Z,10.20
2019-02-20T18:37:47.758Z,10.20
2019-02-20T18:40:17.790Z,10.15
2019-02-20T18:42:46.999Z,10.15
2019-02-20T18:45:16.584Z,10.12
2019-02-20T18:47:45.815Z,10.06
2019-02-20T18:50:16.049Z,10.12
2019-02-20T18:52:45.300Z,10.13
2019-02-20T18:55:14.857Z,10.14
2019-02-20T18:57:44.099Z,10.09
2019-02-20T19:00:20.636Z,10.09
2019-02-20T19:02:49.843Z,10.12
2019-02-20T19:05:19.336Z,10.15
2019-02-20T19:07:48.713Z,9.80
2019-02-20T19:10:29.853Z,9.80
2019-02-20T19:13:23.406Z,9.93
2019-02-20T19:16:13.684Z,9.96
2019-02-20T19:19:06.633Z,9.93
2019-02-20T19:21:38.895Z,9.93
2019-02-20T19:24:30.597Z,9.70
2019-02-20T19:27:14.936Z,9.74
2019-02-20T19:30:27.986Z,9.85
2019-02-20T19:33:40.839Z,9.67
2019-02-20T19:36:21.566Z,9.64
2019-02-20T19:39:26.996Z,9.68
2019-02-20T19:42:20.085Z,9.48
2019-02-20T19:44:52.320Z,9.48
2019-02-20T19:47:40.796Z,9.47
2019-02-20T19:50:33.953Z,9.37
2019-02-20T19:53:14.881Z,9.42
2019-02-20T19:56:07.457Z,9.41
2019-02-20T19:59:04.609Z,9.32
2019-02-20T20:01:47.934Z,9.39
2019-02-20T20:04:50.397Z,9.36
2019-02-20T20:07:27.161Z,9.24
2019-02-20T20:10:17.111Z,9.20
2019-02-20T20:13:07.185Z,9.13
2019-02-20T20:15:42.860Z,9.09
2019-02-20T20:18:39.024Z,9.02
2019-02-20T20:21:29.200Z,9.04
2019-02-20T20:24:24.022Z,9.00
2019-02-20T20:27:04.670Z,9.01
2019-02-20T20:29:39.534Z,8.92
2019-02-20T20:32:17.110Z,8.96
2019-02-20T20:35:08.671Z,8.98
2019-02-20T20:37:52.681Z,8.95
2019-02-20T20:40:27.531Z,8.92
2019-02-20T20:43:05.674Z,8.85
2019-02-20T20:45:43.561Z,8.71
2019-02-20T20:48:34.916Z,8.80
2019-02-20T20:51:22.009Z,8.83
2019-02-20T20:53:56.190Z,8.80
2019-02-20T20:56:39.839Z,8.85
2019-02-20T20:59:37.358Z,8.85
2019-02-20T21:02:09.651Z,8.88
2019-02-20T21:04:57.109Z,8.94
2019-02-20T21:07:29.408Z,9.01
2019-02-20T21:10:01.714Z,9.02
2019-02-20T21:12:53.777Z,9.07
2019-02-20T21:15:28.890Z,9.09
2019-02-20T21:18:13.369Z,9.11
2019-02-20T21:21:00.689Z,9.18
2019-02-20T21:23:58.746Z,9.15
2019-02-20T21:26:36.781Z,9.18
2019-02-20T21:29:09.097Z,9.05
2019-02-20T21:32:01.020Z,9.02
2019-02-20T21:34:49.751Z,9.06
2019-02-20T21:37:42.877Z,9.21
2019-02-20T21:40:34.600Z,9.22
2019-02-20T21:43:21.847Z,9.06
2019-02-20T21:46:27.271Z,8.94
2019-02-20T21:48:59.565Z,8.86
2019-02-20T21:52:08.224Z,8.87
2019-02-20T21:55:32.026Z,8.81
2019-02-20T21:58:34.442Z,8.84
2019-02-20T22:01:18.698Z,8.69
2019-02-20T22:03:51.000Z,8.68
2019-02-20T22:06:25.955Z,8.75
2019-02-20T22:09:06.622Z,8.58
2019-02-20T22:11:50.873Z,8.55
2019-02-20T22:14:34.915Z,8.51
2019-02-20T22:17:35.749Z,8.51
2019-02-20T22:20:16.975Z,8.56
2019-02-20T22:23:00.700Z,8.45
2019-02-20T22:25:45.096Z,8.46
2019-02-20T22:28:34.598Z,8.39
2019-02-20T22:31:32.849Z,8.43
2019-02-20T22:34:21.431Z,8.36
2019-02-20T22:36:53.709Z,8.30
2019-02-20T22:39:31.870Z,8.23
2019-02-20T22:42:15.753Z,8.29
2019-02-20T22:45:05.754Z,8.23
2019-02-20T22:47:43.652Z,8.27
2019-02-20T22:50:34.171Z,8.27
2019-02-20T22:53:11.825Z,8.21
2019-02-20T22:56:01.721Z,8.24
2019-02-20T22:58:45.576Z,8.35
2019-02-20T23:01:23.109Z,8.28
2019-02-20T23:04:10.671Z,8.25
2019-02-20T23:07:07.384Z,8.27
2019-02-20T23:09:45.415Z,8.25
2019-02-20T23:12:36.738Z,8.27
2019-02-20T23:15:06.920Z,8.25
2019-02-20T23:17:36.173Z,8.21
2019-02-20T23:20:07.797Z,8.16
2019-02-20T23:22:37.136Z,8.11
2019-02-20T23:25:06.952Z,8.15
2019-02-20T23:27:36.182Z,8.20
2019-02-20T23:30:12.812Z,8.27
2019-02-20T23:32:39.378Z,8.22
2019-02-20T23:35:09.395Z,8.20
2019-02-20T23:37:38.626Z,8.21
2019-02-20T23:40:09.967Z,8.20
2019-02-20T23:42:39.135Z,8.16
2019-02-20T23:45:09.620Z,8.06
2019-02-20T23:47:38.844Z,8.16
2019-02-20T23:50:08.751Z,8.32
2019-02-20T23:52:37.978Z,8.26
2019-02-20T23:55:07.446Z,8.32
2019-02-20T23:57:36.691Z,8.36
